sensor_id;sensor_type;location;lat;lon;timestamp;P1;durP1;ratioP1;P2;durP2;ratioP2
76935;SDS011;65881;52.438;16.744;2022-12-29T00:00:51;7.90;;;4.60;;
76935;SDS011;65881;52.438;16.744;2022-12-29T00:03:17;6.90;;;4.40;;
76935;SDS011;65881;52.438;16.744;2022-12-29T00:05:56;10.10;;;4.88;;
76935;SDS011;65881;52.438;16.744;2022-12-29T00:08:25;5.20;;;4.35;;
76935;SDS011;65881;52.438;16.744;2022-12-29T00:11:08;6.70;;;4.43;;
76935;SDS011;65881;52.438;16.744;2022-12-29T00:13:36;6.88;;;4.07;;
76935;SDS011;65881;52.438;16.744;2022-12-29T00:16:20;11.00;;;4.68;;
76935;SDS011;65881;52.438;16.744;2022-12-29T00:18:47;5.57;;;4.63;;
76935;SDS011;65881;52.438;16.744;2022-12-29T00:21:14;11.60;;;6.00;;
76935;SDS011;65881;52.438;16.744;2022-12-29T00:24:03;9.45;;;5.88;;
76935;SDS011;65881;52.438;16.744;2022-12-29T00:27:10;9.20;;;6.85;;
76935;SDS011;65881;52.438;16.744;2022-12-29T00:29:55;10.75;;;7.60;;
76935;SDS011;65881;52.438;16.744;2022-12-29T00:32:42;11.98;;;6.35;;
76935;SDS011;65881;52.438;16.744;2022-12-29T00:35:42;9.45;;;6.25;;
76935;SDS011;65881;52.438;16.744;2022-12-29T00:38:22;11.63;;;6.95;;
76935;SDS011;65881;52.438;16.744;2022-12-29T00:41:06;8.85;;;7.32;;
76935;SDS011;65881;52.438;16.744;2022-12-29T00:43:52;10.82;;;7.43;;
76935;SDS011;65881;52.438;16.744;2022-12-29T00:46:36;12.95;;;7.00;;
76935;SDS011;65881;52.438;16.744;2022-12-29T00:49:04;14.15;;;7.03;;
76935;SDS011;65881;52.438;16.744;2022-12-29T00:51:49;10.32;;;6.25;;
76935;SDS011;65881;52.438;16.744;2022-12-29T00:54:15;11.30;;;7.35;;
76935;SDS011;65881;52.438;16.744;2022-12-29T00:56:48;13.27;;;7.05;;
76935;SDS011;65881;52.438;16.744;2022-12-29T00:59:20;12.02;;;7.05;;
76935;SDS011;65881;52.438;16.744;2022-12-29T01:01:47;6.57;;;5.55;;
76935;SDS011;65881;52.438;16.744;2022-12-29T01:04:13;13.18;;;7.85;;
76935;SDS011;65881;52.438;16.744;2022-12-29T01:06:39;9.30;;;6.32;;
76935;SDS011;65881;52.438;16.744;2022-12-29T01:09:07;10.85;;;6.93;;
76935;SDS011;65881;52.438;16.744;2022-12-29T01:11:52;10.27;;;6.68;;
76935;SDS011;65881;52.438;16.744;2022-12-29T01:14:19;8.98;;;6.28;;
76935;SDS011;65881;52.438;16.744;2022-12-29T01:16:45;9.05;;;6.07;;
76935;SDS011;65881;52.438;16.744;2022-12-29T01:19:15;12.75;;;7.57;;
76935;SDS011;65881;52.438;16.744;2022-12-29T01:21:45;10.73;;;5.80;;
76935;SDS011;65881;52.438;16.744;2022-12-29T01:24:13;8.93;;;6.90;;
76935;SDS011;65881;52.438;16.744;2022-12-29T01:26:47;9.15;;;6.22;;
76935;SDS011;65881;52.438;16.744;2022-12-29T01:29:14;8.95;;;7.13;;
76935;SDS011;65881;52.438;16.744;2022-12-29T01:31:40;8.23;;;5.63;;
76935;SDS011;65881;52.438;16.744;2022-12-29T01:34:06;7.07;;;5.78;;
76935;SDS011;65881;52.438;16.744;2022-12-29T01:36:32;10.55;;;6.00;;
76935;SDS011;65881;52.438;16.744;2022-12-29T01:38:58;9.07;;;5.32;;
76935;SDS011;65881;52.438;16.744;2022-12-29T01:41:24;6.00;;;5.15;;
76935;SDS011;65881;52.438;16.744;2022-12-29T01:43:56;6.72;;;4.90;;
76935;SDS011;65881;52.438;16.744;2022-12-29T01:46:36;5.90;;;4.65;;
76935;SDS011;65881;52.438;16.744;2022-12-29T01:49:19;6.50;;;5.32;;
76935;SDS011;65881;52.438;16.744;2022-12-29T01:51:54;6.80;;;5.13;;
76935;SDS011;65881;52.438;16.744;2022-12-29T01:56:53;6.80;;;5.13;;
76935;SDS011;65881;52.438;16.744;2022-12-29T02:01:51;8.80;;;5.03;;
76935;SDS011;65881;52.438;16.744;2022-12-29T02:04:17;7.20;;;4.35;;
76935;SDS011;65881;52.438;16.744;2022-12-29T02:06:48;6.63;;;4.35;;
76935;SDS011;65881;52.438;16.744;2022-12-29T02:09:25;7.00;;;4.65;;
76935;SDS011;65881;52.438;16.744;2022-12-29T02:11:51;8.02;;;5.00;;
76935;SDS011;65881;52.438;16.744;2022-12-29T02:14:18;6.72;;;5.03;;
76935;SDS011;65881;52.438;16.744;2022-12-29T02:34:20;7.05;;;4.57;;
76935;SDS011;65881;52.438;16.744;2022-12-29T02:39:38;6.57;;;4.57;;
76935;SDS011;65881;52.438;16.744;2022-12-29T02:45:03;7.68;;;4.90;;
76935;SDS011;65881;52.438;16.744;2022-12-29T02:50:43;5.30;;;4.00;;
76935;SDS011;65881;52.438;16.744;2022-12-29T02:53:18;4.85;;;3.38;;
76935;SDS011;65881;52.438;16.744;2022-12-29T02:56:08;8.50;;;4.78;;
76935;SDS011;65881;52.438;16.744;2022-12-29T02:58:34;6.15;;;5.45;;
76935;SDS011;65881;52.438;16.744;2022-12-29T03:12:53;5.60;;;4.65;;
76935;SDS011;65881;52.438;16.744;2022-12-29T03:21:12;8.43;;;5.05;;
76935;SDS011;65881;52.438;16.744;2022-12-29T03:24:17;7.90;;;4.55;;
76935;SDS011;65881;52.438;16.744;2022-12-29T03:27:10;5.18;;;4.22;;
76935;SDS011;65881;52.438;16.744;2022-12-29T03:29:43;5.63;;;4.63;;
76935;SDS011;65881;52.438;16.744;2022-12-29T03:32:12;6.38;;;3.85;;
76935;SDS011;65881;52.438;16.744;2022-12-29T03:34:46;6.72;;;3.95;;
76935;SDS011;65881;52.438;16.744;2022-12-29T03:37:14;7.10;;;4.45;;
76935;SDS011;65881;52.438;16.744;2022-12-29T03:39:46;7.40;;;4.28;;
76935;SDS011;65881;52.438;16.744;2022-12-29T03:42:16;5.95;;;4.10;;
76935;SDS011;65881;52.438;16.744;2022-12-29T03:44:48;4.43;;;3.58;;
76935;SDS011;65881;52.438;16.744;2022-12-29T03:47:21;7.43;;;4.53;;
76935;SDS011;65881;52.438;16.744;2022-12-29T03:49:49;7.30;;;4.32;;
76935;SDS011;65881;52.438;16.744;2022-12-29T03:52:15;5.10;;;3.50;;
76935;SDS011;65881;52.438;16.744;2022-12-29T03:55:01;4.40;;;3.03;;
76935;SDS011;65881;52.438;16.744;2022-12-29T03:57:26;6.75;;;4.25;;
76935;SDS011;65881;52.438;16.744;2022-12-29T03:59:52;5.57;;;4.60;;
76935;SDS011;65881;52.438;16.744;2022-12-29T04:02:18;7.32;;;4.30;;
76935;SDS011;65881;52.438;16.744;2022-12-29T04:04:44;6.28;;;4.43;;
76935;SDS011;65881;52.438;16.744;2022-12-29T04:07:10;5.95;;;4.40;;
76935;SDS011;65881;52.438;16.744;2022-12-29T04:09:36;5.47;;;3.35;;
76935;SDS011;65881;52.438;16.744;2022-12-29T04:12:21;7.95;;;4.20;;
76935;SDS011;65881;52.438;16.744;2022-12-29T04:14:47;6.00;;;4.07;;
76935;SDS011;65881;52.438;16.744;2022-12-29T04:17:13;6.97;;;5.13;;
76935;SDS011;65881;52.438;16.744;2022-12-29T04:19:39;5.45;;;3.92;;
76935;SDS011;65881;52.438;16.744;2022-12-29T04:22:06;5.57;;;3.70;;
76935;SDS011;65881;52.438;16.744;2022-12-29T04:24:32;6.78;;;4.25;;
76935;SDS011;65881;52.438;16.744;2022-12-29T04:26:58;4.93;;;4.20;;
76935;SDS011;65881;52.438;16.744;2022-12-29T04:29:23;4.85;;;3.92;;
76935;SDS011;65881;52.438;16.744;2022-12-29T04:31:49;8.27;;;4.22;;
76935;SDS011;65881;52.438;16.744;2022-12-29T04:34:22;5.60;;;3.97;;
76935;SDS011;65881;52.438;16.744;2022-12-29T04:37:09;6.88;;;3.88;;
76935;SDS011;65881;52.438;16.744;2022-12-29T04:39:53;7.72;;;4.32;;
76935;SDS011;65881;52.438;16.744;2022-12-29T04:42:19;5.32;;;3.60;;
76935;SDS011;65881;52.438;16.744;2022-12-29T04:44:45;6.95;;;4.38;;
76935;SDS011;65881;52.438;16.744;2022-12-29T04:47:12;4.47;;;3.53;;
76935;SDS011;65881;52.438;16.744;2022-12-29T04:49:37;6.65;;;4.70;;
76935;SDS011;65881;52.438;16.744;2022-12-29T04:52:03;6.55;;;4.72;;
76935;SDS011;65881;52.438;16.744;2022-12-29T04:54:29;5.40;;;3.95;;
76935;SDS011;65881;52.438;16.744;2022-12-29T04:56:59;5.88;;;4.20;;
76935;SDS011;65881;52.438;16.744;2022-12-29T04:59:25;5.93;;;4.53;;
76935;SDS011;65881;52.438;16.744;2022-12-29T05:01:51;12.27;;;5.40;;
76935;SDS011;65881;52.438;16.744;2022-12-29T05:04:17;7.00;;;4.53;;
76935;SDS011;65881;52.438;16.744;2022-12-29T05:06:42;5.75;;;3.70;;
76935;SDS011;65881;52.438;16.744;2022-12-29T05:09:08;4.80;;;3.55;;
76935;SDS011;65881;52.438;16.744;2022-12-29T05:11:42;6.35;;;4.47;;
76935;SDS011;65881;52.438;16.744;2022-12-29T05:14:07;11.30;;;7.32;;
76935;SDS011;65881;52.438;16.744;2022-12-29T05:16:43;8.52;;;7.45;;
76935;SDS011;65881;52.438;16.744;2022-12-29T05:19:11;7.13;;;6.32;;
76935;SDS011;65881;52.438;16.744;2022-12-29T05:22:03;6.30;;;5.65;;
76935;SDS011;65881;52.438;16.744;2022-12-29T05:24:34;8.10;;;5.63;;
76935;SDS011;65881;52.438;16.744;2022-12-29T05:27:00;4.95;;;4.07;;
76935;SDS011;65881;52.438;16.744;2022-12-29T05:29:26;7.18;;;4.00;;
76935;SDS011;65881;52.438;16.744;2022-12-29T05:31:52;8.13;;;3.75;;
76935;SDS011;65881;52.438;16.744;2022-12-29T05:34:20;5.13;;;4.25;;
76935;SDS011;65881;52.438;16.744;2022-12-29T05:36:46;5.45;;;4.43;;
76935;SDS011;65881;52.438;16.744;2022-12-29T05:39:12;5.25;;;3.78;;
76935;SDS011;65881;52.438;16.744;2022-12-29T05:41:42;6.38;;;4.00;;
76935;SDS011;65881;52.438;16.744;2022-12-29T05:44:11;6.75;;;3.97;;
76935;SDS011;65881;52.438;16.744;2022-12-29T05:46:37;4.93;;;3.15;;
76935;SDS011;65881;52.438;16.744;2022-12-29T05:49:08;4.22;;;3.83;;
76935;SDS011;65881;52.438;16.744;2022-12-29T05:51:34;5.60;;;4.25;;
76935;SDS011;65881;52.438;16.744;2022-12-29T05:54:00;4.38;;;3.58;;
76935;SDS011;65881;52.438;16.744;2022-12-29T05:56:26;6.85;;;3.63;;
76935;SDS011;65881;52.438;16.744;2022-12-29T05:58:51;4.25;;;3.25;;
76935;SDS011;65881;52.438;16.744;2022-12-29T06:01:36;4.40;;;3.17;;
76935;SDS011;65881;52.438;16.744;2022-12-29T06:04:03;5.82;;;4.18;;
76935;SDS011;65881;52.438;16.744;2022-12-29T06:06:28;3.92;;;3.17;;
76935;SDS011;65881;52.438;16.744;2022-12-29T06:09:00;5.03;;;3.92;;
76935;SDS011;65881;52.438;16.744;2022-12-29T06:11:33;5.70;;;3.33;;
76935;SDS011;65881;52.438;16.744;2022-12-29T06:13:59;5.30;;;4.18;;
76935;SDS011;65881;52.438;16.744;2022-12-29T06:16:38;6.00;;;3.25;;
76935;SDS011;65881;52.438;16.744;2022-12-29T06:19:07;4.68;;;3.42;;
76935;SDS011;65881;52.438;16.744;2022-12-29T06:21:42;4.72;;;3.65;;
76935;SDS011;65881;52.438;16.744;2022-12-29T06:24:14;6.50;;;3.50;;
76935;SDS011;65881;52.438;16.744;2022-12-29T06:29:18;5.25;;;3.15;;
76935;SDS011;65881;52.438;16.744;2022-12-29T06:31:45;6.68;;;4.65;;
76935;SDS011;65881;52.438;16.744;2022-12-29T06:34:12;4.22;;;3.55;;
76935;SDS011;65881;52.438;16.744;2022-12-29T06:36:41;3.67;;;2.65;;
76935;SDS011;65881;52.438;16.744;2022-12-29T06:39:10;4.78;;;3.60;;
76935;SDS011;65881;52.438;16.744;2022-12-29T06:41:37;6.35;;;3.22;;
76935;SDS011;65881;52.438;16.744;2022-12-29T06:44:02;4.35;;;3.13;;
76935;SDS011;65881;52.438;16.744;2022-12-29T06:46:29;5.05;;;3.50;;
76935;SDS011;65881;52.438;16.744;2022-12-29T06:48:57;4.13;;;3.05;;
76935;SDS011;65881;52.438;16.744;2022-12-29T06:51:24;6.22;;;3.88;;
76935;SDS011;65881;52.438;16.744;2022-12-29T06:53:53;5.25;;;3.80;;
76935;SDS011;65881;52.438;16.744;2022-12-29T06:56:19;5.68;;;3.45;;
76935;SDS011;65881;52.438;16.744;2022-12-29T06:59:07;5.45;;;3.53;;
76935;SDS011;65881;52.438;16.744;2022-12-29T07:01:33;7.45;;;3.10;;
76935;SDS011;65881;52.438;16.744;2022-12-29T07:04:04;6.68;;;3.40;;
76935;SDS011;65881;52.438;16.744;2022-12-29T07:06:33;4.90;;;3.20;;
76935;SDS011;65881;52.438;16.744;2022-12-29T07:08:58;4.75;;;3.35;;
76935;SDS011;65881;52.438;16.744;2022-12-29T07:11:24;4.97;;;3.15;;
76935;SDS011;65881;52.438;16.744;2022-12-29T07:13:50;5.22;;;3.33;;
76935;SDS011;65881;52.438;16.744;2022-12-29T07:16:19;6.53;;;3.60;;
76935;SDS011;65881;52.438;16.744;2022-12-29T07:18:47;3.92;;;3.28;;
76935;SDS011;65881;52.438;16.744;2022-12-29T07:21:13;5.65;;;3.63;;
76935;SDS011;65881;52.438;16.744;2022-12-29T07:23:44;5.88;;;3.55;;
76935;SDS011;65881;52.438;16.744;2022-12-29T07:26:14;6.00;;;3.30;;
76935;SDS011;65881;52.438;16.744;2022-12-29T07:28:52;4.70;;;3.45;;
76935;SDS011;65881;52.438;16.744;2022-12-29T07:31:21;4.22;;;3.25;;
76935;SDS011;65881;52.438;16.744;2022-12-29T07:33:55;5.25;;;3.72;;
76935;SDS011;65881;52.438;16.744;2022-12-29T07:36:26;7.55;;;3.70;;
76935;SDS011;65881;52.438;16.744;2022-12-29T07:38:52;5.22;;;3.22;;
76935;SDS011;65881;52.438;16.744;2022-12-29T07:41:18;5.88;;;3.67;;
76935;SDS011;65881;52.438;16.744;2022-12-29T07:43:47;6.30;;;4.38;;
76935;SDS011;65881;52.438;16.744;2022-12-29T07:46:18;5.00;;;3.38;;
76935;SDS011;65881;52.438;16.744;2022-12-29T07:48:46;5.80;;;3.50;;
76935;SDS011;65881;52.438;16.744;2022-12-29T07:51:24;5.05;;;3.08;;
76935;SDS011;65881;52.438;16.744;2022-12-29T07:54:05;6.80;;;3.97;;
76935;SDS011;65881;52.438;16.744;2022-12-29T07:56:35;4.53;;;3.20;;
76935;SDS011;65881;52.438;16.744;2022-12-29T07:59:01;4.70;;;3.50;;
76935;SDS011;65881;52.438;16.744;2022-12-29T08:01:36;6.05;;;3.72;;
76935;SDS011;65881;52.438;16.744;2022-12-29T08:04:02;7.18;;;3.78;;
76935;SDS011;65881;52.438;16.744;2022-12-29T08:06:32;5.05;;;3.45;;
76935;SDS011;65881;52.438;16.744;2022-12-29T08:08:57;6.35;;;3.90;;
76935;SDS011;65881;52.438;16.744;2022-12-29T08:11:25;5.63;;;3.92;;
76935;SDS011;65881;52.438;16.744;2022-12-29T08:13:51;6.28;;;4.07;;
76935;SDS011;65881;52.438;16.744;2022-12-29T08:16:17;9.27;;;4.57;;
76935;SDS011;65881;52.438;16.744;2022-12-29T08:18:46;6.63;;;3.83;;
76935;SDS011;65881;52.438;16.744;2022-12-29T08:21:11;5.05;;;3.30;;
76935;SDS011;65881;52.438;16.744;2022-12-29T08:23:37;5.00;;;4.15;;
76935;SDS011;65881;52.438;16.744;2022-12-29T08:26:06;7.00;;;4.50;;
76935;SDS011;65881;52.438;16.744;2022-12-29T08:28:32;7.93;;;3.58;;
76935;SDS011;65881;52.438;16.744;2022-12-29T08:30:59;6.25;;;3.72;;
76935;SDS011;65881;52.438;16.744;2022-12-29T08:33:27;6.72;;;3.97;;
76935;SDS011;65881;52.438;16.744;2022-12-29T08:36:02;5.90;;;3.28;;
76935;SDS011;65881;52.438;16.744;2022-12-29T08:38:30;4.95;;;3.08;;
76935;SDS011;65881;52.438;16.744;2022-12-29T08:40:56;7.25;;;4.28;;
76935;SDS011;65881;52.438;16.744;2022-12-29T08:43:24;7.22;;;3.95;;
76935;SDS011;65881;52.438;16.744;2022-12-29T08:45:53;7.38;;;3.55;;
76935;SDS011;65881;52.438;16.744;2022-12-29T08:48:19;5.88;;;3.55;;
76935;SDS011;65881;52.438;16.744;2022-12-29T08:50:47;5.55;;;3.95;;
76935;SDS011;65881;52.438;16.744;2022-12-29T08:53:16;6.18;;;3.55;;
76935;SDS011;65881;52.438;16.744;2022-12-29T08:55:44;6.38;;;3.83;;
76935;SDS011;65881;52.438;16.744;2022-12-29T08:58:11;5.28;;;3.55;;
76935;SDS011;65881;52.438;16.744;2022-12-29T09:00:40;5.32;;;4.30;;
76935;SDS011;65881;52.438;16.744;2022-12-29T09:03:06;6.70;;;3.50;;
76935;SDS011;65881;52.438;16.744;2022-12-29T09:05:38;5.20;;;3.03;;
76935;SDS011;65881;52.438;16.744;2022-12-29T09:08:04;4.28;;;3.45;;
76935;SDS011;65881;52.438;16.744;2022-12-29T09:10:30;5.05;;;3.47;;
76935;SDS011;65881;52.438;16.744;2022-12-29T09:12:56;9.15;;;3.97;;
76935;SDS011;65881;52.438;16.744;2022-12-29T09:15:21;8.07;;;3.88;;
76935;SDS011;65881;52.438;16.744;2022-12-29T09:17:47;8.02;;;4.05;;
76935;SDS011;65881;52.438;16.744;2022-12-29T09:20:14;5.22;;;3.33;;
76935;SDS011;65881;52.438;16.744;2022-12-29T09:22:45;7.07;;;4.15;;
76935;SDS011;65881;52.438;16.744;2022-12-29T09:25:12;5.35;;;4.35;;
76935;SDS011;65881;52.438;16.744;2022-12-29T09:27:42;5.97;;;3.75;;
76935;SDS011;65881;52.438;16.744;2022-12-29T09:30:09;5.15;;;3.67;;
76935;SDS011;65881;52.438;16.744;2022-12-29T09:32:36;11.10;;;4.72;;
76935;SDS011;65881;52.438;16.744;2022-12-29T09:35:06;7.72;;;4.47;;
76935;SDS011;65881;52.438;16.744;2022-12-29T09:37:32;9.80;;;5.53;;
76935;SDS011;65881;52.438;16.744;2022-12-29T09:39:58;10.07;;;4.07;;
76935;SDS011;65881;52.438;16.744;2022-12-29T09:47:55;6.88;;;3.63;;
76935;SDS011;65881;52.438;16.744;2022-12-29T09:52:51;5.68;;;3.00;;
76935;SDS011;65881;52.438;16.744;2022-12-29T09:58:12;7.55;;;4.20;;
76935;SDS011;65881;52.438;16.744;2022-12-29T10:03:19;5.90;;;4.10;;
76935;SDS011;65881;52.438;16.744;2022-12-29T10:05:53;6.00;;;3.63;;
76935;SDS011;65881;52.438;16.744;2022-12-29T10:17:54;8.43;;;3.97;;
76935;SDS011;65881;52.438;16.744;2022-12-29T10:20:44;4.75;;;3.25;;
76935;SDS011;65881;52.438;16.744;2022-12-29T10:25:55;4.82;;;3.75;;
76935;SDS011;65881;52.438;16.744;2022-12-29T10:31:31;6.43;;;4.35;;
76935;SDS011;65881;52.438;16.744;2022-12-29T10:34:13;5.93;;;4.20;;
76935;SDS011;65881;52.438;16.744;2022-12-29T10:37:09;6.05;;;4.30;;
76935;SDS011;65881;52.438;16.744;2022-12-29T10:39:51;6.85;;;4.55;;
76935;SDS011;65881;52.438;16.744;2022-12-29T10:42:28;5.38;;;3.53;;
76935;SDS011;65881;52.438;16.744;2022-12-29T10:44:59;6.72;;;3.85;;
76935;SDS011;65881;52.438;16.744;2022-12-29T10:47:27;6.57;;;3.95;;
76935;SDS011;65881;52.438;16.744;2022-12-29T10:49:56;8.55;;;3.85;;
76935;SDS011;65881;52.438;16.744;2022-12-29T10:52:24;4.65;;;3.30;;
76935;SDS011;65881;52.438;16.744;2022-12-29T10:54:53;5.93;;;2.83;;
76935;SDS011;65881;52.438;16.744;2022-12-29T10:57:33;4.68;;;3.35;;
76935;SDS011;65881;52.438;16.744;2022-12-29T11:00:13;7.70;;;3.53;;
76935;SDS011;65881;52.438;16.744;2022-12-29T11:08:26;5.20;;;3.30;;
76935;SDS011;65881;52.438;16.744;2022-12-29T11:11:00;6.22;;;3.33;;
76935;SDS011;65881;52.438;16.744;2022-12-29T11:13:34;5.82;;;3.08;;
76935;SDS011;65881;52.438;16.744;2022-12-29T11:16:33;4.97;;;3.20;;
76935;SDS011;65881;52.438;16.744;2022-12-29T11:18:59;6.82;;;3.42;;
76935;SDS011;65881;52.438;16.744;2022-12-29T11:21:38;5.00;;;2.88;;
76935;SDS011;65881;52.438;16.744;2022-12-29T11:24:20;6.18;;;3.28;;
76935;SDS011;65881;52.438;16.744;2022-12-29T11:26:51;4.50;;;3.05;;
76935;SDS011;65881;52.438;16.744;2022-12-29T11:29:37;6.38;;;3.20;;
76935;SDS011;65881;52.438;16.744;2022-12-29T11:34:51;6.30;;;2.95;;
76935;SDS011;65881;52.438;16.744;2022-12-29T11:37:18;5.38;;;3.08;;
76935;SDS011;65881;52.438;16.744;2022-12-29T11:39:55;6.57;;;2.80;;
76935;SDS011;65881;52.438;16.744;2022-12-29T11:45:06;4.35;;;2.65;;
76935;SDS011;65881;52.438;16.744;2022-12-29T11:47:41;4.05;;;2.80;;
76935;SDS011;65881;52.438;16.744;2022-12-29T11:50:16;6.15;;;2.70;;
76935;SDS011;65881;52.438;16.744;2022-12-29T11:52:47;4.32;;;3.00;;
76935;SDS011;65881;52.438;16.744;2022-12-29T11:55:18;6.40;;;3.00;;
76935;SDS011;65881;52.438;16.744;2022-12-29T11:57:47;4.25;;;3.33;;
76935;SDS011;65881;52.438;16.744;2022-12-29T12:00:19;3.97;;;2.83;;
76935;SDS011;65881;52.438;16.744;2022-12-29T12:05:28;3.88;;;3.10;;
76935;SDS011;65881;52.438;16.744;2022-12-29T12:08:17;5.70;;;2.90;;
76935;SDS011;65881;52.438;16.744;2022-12-29T12:11:14;5.03;;;2.90;;
76935;SDS011;65881;52.438;16.744;2022-12-29T12:14:14;6.90;;;2.97;;
76935;SDS011;65881;52.438;16.744;2022-12-29T12:16:48;8.32;;;4.15;;
76935;SDS011;65881;52.438;16.744;2022-12-29T12:25:03;7.43;;;3.60;;
76935;SDS011;65881;52.438;16.744;2022-12-29T12:27:33;5.20;;;3.40;;
76935;SDS011;65881;52.438;16.744;2022-12-29T12:30:12;4.82;;;2.80;;
76935;SDS011;65881;52.438;16.744;2022-12-29T12:32:56;6.10;;;3.17;;
76935;SDS011;65881;52.438;16.744;2022-12-29T12:35:52;4.88;;;3.10;;
76935;SDS011;65881;52.438;16.744;2022-12-29T12:44:18;4.55;;;3.10;;
76935;SDS011;65881;52.438;16.744;2022-12-29T12:49:48;4.95;;;2.70;;
76935;SDS011;65881;52.438;16.744;2022-12-29T12:57:42;4.28;;;2.72;;
76935;SDS011;65881;52.438;16.744;2022-12-29T13:00:13;4.82;;;2.70;;
76935;SDS011;65881;52.438;16.744;2022-12-29T13:17:51;4.78;;;3.40;;
76935;SDS011;65881;52.438;16.744;2022-12-29T13:31:15;4.97;;;3.28;;
76935;SDS011;65881;52.438;16.744;2022-12-29T13:37:01;8.88;;;2.92;;
76935;SDS011;65881;52.438;16.744;2022-12-29T13:42:08;4.43;;;2.72;;
76935;SDS011;65881;52.438;16.744;2022-12-29T13:44:46;3.28;;;2.70;;
76935;SDS011;65881;52.438;16.744;2022-12-29T13:49:47;4.57;;;2.78;;
76935;SDS011;65881;52.438;16.744;2022-12-29T14:00:22;4.38;;;3.13;;
76935;SDS011;65881;52.438;16.744;2022-12-29T14:03:01;4.57;;;2.70;;
76935;SDS011;65881;52.438;16.744;2022-12-29T14:05:45;3.97;;;2.38;;
76935;SDS011;65881;52.438;16.744;2022-12-29T14:08:50;5.75;;;3.13;;
76935;SDS011;65881;52.438;16.744;2022-12-29T14:11:35;3.60;;;2.45;;
76935;SDS011;65881;52.438;16.744;2022-12-29T14:14:13;3.40;;;2.88;;
76935;SDS011;65881;52.438;16.744;2022-12-29T14:16:46;4.95;;;3.35;;
76935;SDS011;65881;52.438;16.744;2022-12-29T14:19:14;3.35;;;2.95;;
76935;SDS011;65881;52.438;16.744;2022-12-29T14:21:53;5.45;;;2.80;;
76935;SDS011;65881;52.438;16.744;2022-12-29T14:24:40;3.45;;;2.80;;
76935;SDS011;65881;52.438;16.744;2022-12-29T14:34:52;8.40;;;3.95;;
76935;SDS011;65881;52.438;16.744;2022-12-29T14:37:26;8.30;;;4.85;;
76935;SDS011;65881;52.438;16.744;2022-12-29T14:42:55;6.15;;;3.67;;
76935;SDS011;65881;52.438;16.744;2022-12-29T14:45:28;5.43;;;3.50;;
76935;SDS011;65881;52.438;16.744;2022-12-29T14:48:01;5.55;;;3.60;;
76935;SDS011;65881;52.438;16.744;2022-12-29T14:50:45;5.57;;;3.35;;
76935;SDS011;65881;52.438;16.744;2022-12-29T14:56:41;6.10;;;4.43;;
76935;SDS011;65881;52.438;16.744;2022-12-29T14:59:13;7.00;;;4.35;;
76935;SDS011;65881;52.438;16.744;2022-12-29T15:01:47;8.32;;;5.07;;
76935;SDS011;65881;52.438;16.744;2022-12-29T15:06:58;8.85;;;4.65;;
76935;SDS011;65881;52.438;16.744;2022-12-29T15:12:38;6.55;;;4.13;;
76935;SDS011;65881;52.438;16.744;2022-12-29T15:17:45;5.97;;;3.17;;
76935;SDS011;65881;52.438;16.744;2022-12-29T15:20:27;6.82;;;4.32;;
76935;SDS011;65881;52.438;16.744;2022-12-29T15:23:00;12.43;;;5.05;;
76935;SDS011;65881;52.438;16.744;2022-12-29T15:25:35;9.55;;;6.82;;
76935;SDS011;65881;52.438;16.744;2022-12-29T15:28:03;6.60;;;4.38;;
76935;SDS011;65881;52.438;16.744;2022-12-29T15:30:35;6.63;;;4.43;;
76935;SDS011;65881;52.438;16.744;2022-12-29T15:36:13;9.20;;;4.82;;
76935;SDS011;65881;52.438;16.744;2022-12-29T15:38:44;6.88;;;4.82;;
76935;SDS011;65881;52.438;16.744;2022-12-29T15:41:53;8.13;;;5.10;;
76935;SDS011;65881;52.438;16.744;2022-12-29T15:44:45;7.30;;;3.88;;
76935;SDS011;65881;52.438;16.744;2022-12-29T15:47:15;7.88;;;4.32;;
76935;SDS011;65881;52.438;16.744;2022-12-29T15:49:52;5.25;;;3.50;;
76935;SDS011;65881;52.438;16.744;2022-12-29T15:52:21;6.88;;;4.75;;
76935;SDS011;65881;52.438;16.744;2022-12-29T15:54:49;6.05;;;4.10;;
76935;SDS011;65881;52.438;16.744;2022-12-29T15:57:21;7.95;;;4.40;;
76935;SDS011;65881;52.438;16.744;2022-12-29T15:59:53;7.97;;;4.60;;
76935;SDS011;65881;52.438;16.744;2022-12-29T16:02:22;7.53;;;5.22;;
76935;SDS011;65881;52.438;16.744;2022-12-29T16:04:49;8.38;;;5.00;;
76935;SDS011;65881;52.438;16.744;2022-12-29T16:10:01;6.85;;;4.97;;
76935;SDS011;65881;52.438;16.744;2022-12-29T16:12:49;8.05;;;5.10;;
76935;SDS011;65881;52.438;16.744;2022-12-29T16:15:16;8.57;;;5.13;;
76935;SDS011;65881;52.438;16.744;2022-12-29T16:17:50;9.07;;;4.93;;
76935;SDS011;65881;52.438;16.744;2022-12-29T16:20:25;6.75;;;4.63;;
76935;SDS011;65881;52.438;16.744;2022-12-29T16:22:59;10.75;;;5.63;;
76935;SDS011;65881;52.438;16.744;2022-12-29T16:25:27;8.32;;;4.70;;
76935;SDS011;65881;52.438;16.744;2022-12-29T16:27:56;9.07;;;4.35;;
76935;SDS011;65881;52.438;16.744;2022-12-29T16:30:30;5.43;;;3.63;;
76935;SDS011;65881;52.438;16.744;2022-12-29T16:32:58;6.60;;;4.20;;
76935;SDS011;65881;52.438;16.744;2022-12-29T16:35:26;7.03;;;3.78;;
76935;SDS011;65881;52.438;16.744;2022-12-29T16:38:07;5.82;;;3.97;;
76935;SDS011;65881;52.438;16.744;2022-12-29T16:40:38;7.32;;;3.95;;
76935;SDS011;65881;52.438;16.744;2022-12-29T16:43:22;6.70;;;4.70;;
76935;SDS011;65881;52.438;16.744;2022-12-29T16:48:45;6.72;;;4.45;;
76935;SDS011;65881;52.438;16.744;2022-12-29T16:51:18;8.07;;;5.65;;
76935;SDS011;65881;52.438;16.744;2022-12-29T16:53:57;8.90;;;4.63;;
76935;SDS011;65881;52.438;16.744;2022-12-29T16:56:26;11.40;;;5.03;;
76935;SDS011;65881;52.438;16.744;2022-12-29T17:01:26;8.85;;;6.20;;
76935;SDS011;65881;52.438;16.744;2022-12-29T17:04:00;9.50;;;5.40;;
76935;SDS011;65881;52.438;16.744;2022-12-29T17:06:30;10.57;;;5.60;;
76935;SDS011;65881;52.438;16.744;2022-12-29T17:08:56;9.93;;;5.63;;
76935;SDS011;65881;52.438;16.744;2022-12-29T17:11:29;9.50;;;4.93;;
76935;SDS011;65881;52.438;16.744;2022-12-29T17:14:19;7.05;;;4.32;;
76935;SDS011;65881;52.438;16.744;2022-12-29T17:16:53;9.90;;;5.45;;
76935;SDS011;65881;52.438;16.744;2022-12-29T17:22:21;7.30;;;4.32;;
76935;SDS011;65881;52.438;16.744;2022-12-29T17:24:50;8.50;;;4.88;;
76935;SDS011;65881;52.438;16.744;2022-12-29T17:27:22;7.72;;;5.03;;
76935;SDS011;65881;52.438;16.744;2022-12-29T17:29:57;9.95;;;5.68;;
76935;SDS011;65881;52.438;16.744;2022-12-29T17:32:26;13.15;;;5.32;;
76935;SDS011;65881;52.438;16.744;2022-12-29T17:34:52;9.50;;;5.53;;
76935;SDS011;65881;52.438;16.744;2022-12-29T17:39:52;13.07;;;6.93;;
76935;SDS011;65881;52.438;16.744;2022-12-29T17:42:20;8.27;;;5.75;;
76935;SDS011;65881;52.438;16.744;2022-12-29T17:44:46;11.77;;;6.15;;
76935;SDS011;65881;52.438;16.744;2022-12-29T17:47:13;10.57;;;6.63;;
76935;SDS011;65881;52.438;16.744;2022-12-29T17:49:43;10.40;;;5.68;;
76935;SDS011;65881;52.438;16.744;2022-12-29T17:52:12;11.95;;;5.80;;
76935;SDS011;65881;52.438;16.744;2022-12-29T17:54:54;11.32;;;7.10;;
76935;SDS011;65881;52.438;16.744;2022-12-29T17:57:20;11.48;;;6.20;;
76935;SDS011;65881;52.438;16.744;2022-12-29T17:59:46;9.23;;;5.88;;
76935;SDS011;65881;52.438;16.744;2022-12-29T18:02:29;8.55;;;5.45;;
76935;SDS011;65881;52.438;16.744;2022-12-29T18:04:57;10.27;;;5.72;;
76935;SDS011;65881;52.438;16.744;2022-12-29T18:07:35;11.43;;;6.38;;
76935;SDS011;65881;52.438;16.744;2022-12-29T18:10:02;9.23;;;6.20;;
76935;SDS011;65881;52.438;16.744;2022-12-29T18:15:22;10.35;;;6.38;;
76935;SDS011;65881;52.438;16.744;2022-12-29T18:20:43;9.88;;;7.25;;
76935;SDS011;65881;52.438;16.744;2022-12-29T18:23:16;11.35;;;7.07;;